sensor_id;sensor_type;location;lat;lon;timestamp;P1;durP1;ratioP1;P2;durP2;ratioP2
66946;SDS011;53853;51.982;5.928;2023-02-28T00:00:36;6.22;;;3.33;;
66946;SDS011;53853;51.982;5.928;2023-02-28T00:03:09;5.47;;;2.90;;
66946;SDS011;53853;51.982;5.928;2023-02-28T00:05:39;4.72;;;3.20;;
66946;SDS011;53853;51.982;5.928;2023-02-28T00:08:09;5.57;;;3.13;;
66946;SDS011;53853;51.982;5.928;2023-02-28T00:10:39;9.52;;;5.28;;
66946;SDS011;53853;51.982;5.928;2023-02-28T00:13:09;6.47;;;4.20;;
66946;SDS011;53853;51.982;5.928;2023-02-28T00:15:39;9.88;;;5.03;;
66946;SDS011;53853;51.982;5.928;2023-02-28T00:18:13;6.15;;;3.85;;
66946;SDS011;53853;51.982;5.928;2023-02-28T00:20:43;4.65;;;3.15;;
66946;SDS011;53853;51.982;5.928;2023-02-28T00:23:13;6.75;;;3.10;;
66946;SDS011;53853;51.982;5.928;2023-02-28T00:25:43;4.82;;;2.55;;
66946;SDS011;53853;51.982;5.928;2023-02-28T00:28:13;4.15;;;3.42;;
66946;SDS011;53853;51.982;5.928;2023-02-28T00:30:43;5.80;;;3.13;;
66946;SDS011;53853;51.982;5.928;2023-02-28T00:33:16;4.97;;;2.90;;
66946;SDS011;53853;51.982;5.928;2023-02-28T00:35:47;4.57;;;3.22;;
66946;SDS011;53853;51.982;5.928;2023-02-28T00:38:17;5.18;;;2.80;;
66946;SDS011;53853;51.982;5.928;2023-02-28T00:40:47;6.13;;;3.13;;
66946;SDS011;53853;51.982;5.928;2023-02-28T00:43:16;4.93;;;2.95;;
66946;SDS011;53853;51.982;5.928;2023-02-28T00:45:46;4.07;;;2.88;;
66946;SDS011;53853;51.982;5.928;2023-02-28T00:48:19;15.23;;;3.58;;
66946;SDS011;53853;51.982;5.928;2023-02-28T00:50:49;4.68;;;2.92;;
66946;SDS011;53853;51.982;5.928;2023-02-28T00:53:19;5.15;;;2.80;;
66946;SDS011;53853;51.982;5.928;2023-02-28T00:55:49;7.35;;;4.32;;
66946;SDS011;53853;51.982;5.928;2023-02-28T00:58:19;5.53;;;3.85;;
66946;SDS011;53853;51.982;5.928;2023-02-28T01:00:50;4.60;;;2.97;;
66946;SDS011;53853;51.982;5.928;2023-02-28T01:03:23;6.07;;;3.47;;
66946;SDS011;53853;51.982;5.928;2023-02-28T01:05:54;6.25;;;3.85;;
66946;SDS011;53853;51.982;5.928;2023-02-28T01:08:24;5.57;;;3.63;;
66946;SDS011;53853;51.982;5.928;2023-02-28T01:10:54;5.97;;;3.83;;
66946;SDS011;53853;51.982;5.928;2023-02-28T01:13:24;6.20;;;3.53;;
66946;SDS011;53853;51.982;5.928;2023-02-28T01:15:55;9.63;;;3.65;;
66946;SDS011;53853;51.982;5.928;2023-02-28T01:18:27;5.07;;;3.28;;
66946;SDS011;53853;51.982;5.928;2023-02-28T01:20:57;4.57;;;3.10;;
66946;SDS011;53853;51.982;5.928;2023-02-28T01:23:31;5.88;;;3.42;;
66946;SDS011;53853;51.982;5.928;2023-02-28T01:26:05;4.43;;;3.15;;
66946;SDS011;53853;51.982;5.928;2023-02-28T01:28:39;3.65;;;3.05;;
66946;SDS011;53853;51.982;5.928;2023-02-28T01:31:09;5.93;;;3.47;;
66946;SDS011;53853;51.982;5.928;2023-02-28T01:33:42;6.25;;;3.50;;
66946;SDS011;53853;51.982;5.928;2023-02-28T01:36:13;6.43;;;3.33;;
66946;SDS011;53853;51.982;5.928;2023-02-28T01:38:45;8.10;;;3.63;;
66946;SDS011;53853;51.982;5.928;2023-02-28T01:41:16;7.35;;;3.67;;
66946;SDS011;53853;51.982;5.928;2023-02-28T01:43:55;6.38;;;3.53;;
66946;SDS011;53853;51.982;5.928;2023-02-28T01:46:29;6.47;;;3.78;;
66946;SDS011;53853;51.982;5.928;2023-02-28T01:49:03;5.22;;;3.60;;
66946;SDS011;53853;51.982;5.928;2023-02-28T01:51:38;6.22;;;3.97;;
66946;SDS011;53853;51.982;5.928;2023-02-28T01:54:16;5.85;;;3.55;;
66946;SDS011;53853;51.982;5.928;2023-02-28T01:56:50;6.33;;;3.57;;
66946;SDS011;53853;51.982;5.928;2023-02-28T01:59:24;6.53;;;3.45;;
66946;SDS011;53853;51.982;5.928;2023-02-28T02:01:59;5.15;;;3.03;;
66946;SDS011;53853;51.982;5.928;2023-02-28T02:04:36;4.97;;;3.55;;
66946;SDS011;53853;51.982;5.928;2023-02-28T02:07:10;6.30;;;3.33;;
66946;SDS011;53853;51.982;5.928;2023-02-28T02:12:16;6.65;;;3.58;;
66946;SDS011;53853;51.982;5.928;2023-02-28T02:14:58;5.90;;;4.07;;
66946;SDS011;53853;51.982;5.928;2023-02-28T02:17:38;5.75;;;3.60;;
66946;SDS011;53853;51.982;5.928;2023-02-28T02:26:35;5.28;;;3.38;;
66946;SDS011;53853;51.982;5.928;2023-02-28T02:35:20;9.23;;;3.88;;
66946;SDS011;53853;51.982;5.928;2023-02-28T02:37:59;4.93;;;3.33;;
66946;SDS011;53853;51.982;5.928;2023-02-28T02:40:37;9.05;;;4.03;;
66946;SDS011;53853;51.982;5.928;2023-02-28T02:43:13;5.55;;;3.30;;
66946;SDS011;53853;51.982;5.928;2023-02-28T02:45:48;5.72;;;3.38;;
66946;SDS011;53853;51.982;5.928;2023-02-28T02:48:24;4.75;;;3.63;;
66946;SDS011;53853;51.982;5.928;2023-02-28T02:51:00;5.97;;;3.35;;
66946;SDS011;53853;51.982;5.928;2023-02-28T02:53:40;4.85;;;3.78;;
66946;SDS011;53853;51.982;5.928;2023-02-28T02:56:15;7.18;;;4.32;;
66946;SDS011;53853;51.982;5.928;2023-02-28T03:01:22;4.32;;;3.25;;
66946;SDS011;53853;51.982;5.928;2023-02-28T03:03:56;5.97;;;3.60;;
66946;SDS011;53853;51.982;5.928;2023-02-28T03:06:31;5.40;;;3.90;;
66946;SDS011;53853;51.982;5.928;2023-02-28T03:09:02;5.57;;;3.50;;
66946;SDS011;53853;51.982;5.928;2023-02-28T03:11:32;5.30;;;4.68;;
66946;SDS011;53853;51.982;5.928;2023-02-28T03:20:17;7.18;;;3.92;;
66946;SDS011;53853;51.982;5.928;2023-02-28T03:23:02;6.50;;;4.10;;
66946;SDS011;53853;51.982;5.928;2023-02-28T03:25:45;6.53;;;4.10;;
66946;SDS011;53853;51.982;5.928;2023-02-28T03:28:26;5.25;;;3.40;;
66946;SDS011;53853;51.982;5.928;2023-02-28T03:31:01;6.18;;;3.92;;
66946;SDS011;53853;51.982;5.928;2023-02-28T03:33:38;5.88;;;4.00;;
66946;SDS011;53853;51.982;5.928;2023-02-28T03:36:12;8.30;;;4.43;;
66946;SDS011;53853;51.982;5.928;2023-02-28T03:38:49;8.10;;;4.03;;
66946;SDS011;53853;51.982;5.928;2023-02-28T03:41:23;6.10;;;3.80;;
66946;SDS011;53853;51.982;5.928;2023-02-28T03:43:59;9.95;;;4.35;;
66946;SDS011;53853;51.982;5.928;2023-02-28T03:46:35;5.95;;;3.45;;
66946;SDS011;53853;51.982;5.928;2023-02-28T03:49:11;6.13;;;4.45;;
66946;SDS011;53853;51.982;5.928;2023-02-28T03:51:47;5.82;;;3.60;;
66946;SDS011;53853;51.982;5.928;2023-02-28T03:54:24;6.07;;;3.88;;
66946;SDS011;53853;51.982;5.928;2023-02-28T03:57:00;6.05;;;3.85;;
66946;SDS011;53853;51.982;5.928;2023-02-28T03:59:36;5.75;;;3.53;;
66946;SDS011;53853;51.982;5.928;2023-02-28T04:02:10;5.15;;;3.20;;
66946;SDS011;53853;51.982;5.928;2023-02-28T04:04:40;4.10;;;3.17;;
66946;SDS011;53853;51.982;5.928;2023-02-28T04:07:11;5.22;;;3.17;;
66946;SDS011;53853;51.982;5.928;2023-02-28T04:09:43;6.55;;;3.70;;
66946;SDS011;53853;51.982;5.928;2023-02-28T04:12:13;4.50;;;3.20;;
66946;SDS011;53853;51.982;5.928;2023-02-28T04:14:43;4.63;;;2.95;;
66946;SDS011;53853;51.982;5.928;2023-02-28T04:17:13;5.43;;;3.45;;
66946;SDS011;53853;51.982;5.928;2023-02-28T04:19:43;4.88;;;2.72;;
66946;SDS011;53853;51.982;5.928;2023-02-28T04:22:13;7.80;;;3.40;;
66946;SDS011;53853;51.982;5.928;2023-02-28T04:24:46;5.97;;;2.85;;
66946;SDS011;53853;51.982;5.928;2023-02-28T04:27:16;4.60;;;2.95;;
66946;SDS011;53853;51.982;5.928;2023-02-28T04:29:45;5.03;;;2.58;;
66946;SDS011;53853;51.982;5.928;2023-02-28T04:32:15;4.75;;;3.00;;
66946;SDS011;53853;51.982;5.928;2023-02-28T04:34:45;5.53;;;3.92;;
66946;SDS011;53853;51.982;5.928;2023-02-28T04:37:15;5.15;;;2.70;;
66946;SDS011;53853;51.982;5.928;2023-02-28T04:39:47;5.97;;;3.25;;
66946;SDS011;53853;51.982;5.928;2023-02-28T04:42:17;4.22;;;2.95;;
66946;SDS011;53853;51.982;5.928;2023-02-28T04:44:47;3.53;;;2.50;;
66946;SDS011;53853;51.982;5.928;2023-02-28T04:47:17;3.50;;;2.25;;
66946;SDS011;53853;51.982;5.928;2023-02-28T04:49:47;4.53;;;2.58;;
66946;SDS011;53853;51.982;5.928;2023-02-28T04:52:17;5.22;;;2.95;;
66946;SDS011;53853;51.982;5.928;2023-02-28T04:54:50;4.35;;;2.30;;
66946;SDS011;53853;51.982;5.928;2023-02-28T04:57:20;4.85;;;2.53;;
66946;SDS011;53853;51.982;5.928;2023-02-28T04:59:50;4.82;;;3.05;;
66946;SDS011;53853;51.982;5.928;2023-02-28T05:02:20;5.07;;;2.40;;
66946;SDS011;53853;51.982;5.928;2023-02-28T05:04:50;3.35;;;2.20;;
66946;SDS011;53853;51.982;5.928;2023-02-28T05:07:20;3.55;;;2.75;;
66946;SDS011;53853;51.982;5.928;2023-02-28T05:09:52;7.78;;;2.38;;
66946;SDS011;53853;51.982;5.928;2023-02-28T05:12:22;3.60;;;2.33;;
66946;SDS011;53853;51.982;5.928;2023-02-28T05:14:52;3.22;;;2.35;;
66946;SDS011;53853;51.982;5.928;2023-02-28T05:17:22;4.18;;;2.42;;
66946;SDS011;53853;51.982;5.928;2023-02-28T05:19:52;5.68;;;2.00;;
66946;SDS011;53853;51.982;5.928;2023-02-28T05:22:22;3.38;;;2.22;;
66946;SDS011;53853;51.982;5.928;2023-02-28T05:24:54;6.22;;;2.58;;
66946;SDS011;53853;51.982;5.928;2023-02-28T05:27:24;3.55;;;2.20;;
66946;SDS011;53853;51.982;5.928;2023-02-28T05:29:54;3.30;;;2.38;;
66946;SDS011;53853;51.982;5.928;2023-02-28T05:32:24;3.72;;;2.28;;
66946;SDS011;53853;51.982;5.928;2023-02-28T05:34:54;4.80;;;2.63;;
66946;SDS011;53853;51.982;5.928;2023-02-28T05:37:24;3.42;;;1.95;;
66946;SDS011;53853;51.982;5.928;2023-02-28T05:39:56;4.28;;;2.58;;
66946;SDS011;53853;51.982;5.928;2023-02-28T05:42:26;3.05;;;2.00;;
66946;SDS011;53853;51.982;5.928;2023-02-28T05:44:56;3.65;;;2.25;;
66946;SDS011;53853;51.982;5.928;2023-02-28T05:47:27;3.33;;;2.00;;
66946;SDS011;53853;51.982;5.928;2023-02-28T05:49:56;3.97;;;2.30;;
66946;SDS011;53853;51.982;5.928;2023-02-28T05:52:26;3.42;;;1.95;;
66946;SDS011;53853;51.982;5.928;2023-02-28T05:55:00;3.20;;;2.30;;
66946;SDS011;53853;51.982;5.928;2023-02-28T05:57:30;3.13;;;2.05;;
66946;SDS011;53853;51.982;5.928;2023-02-28T06:00:00;2.53;;;1.60;;
66946;SDS011;53853;51.982;5.928;2023-02-28T06:02:38;3.85;;;1.95;;
66946;SDS011;53853;51.982;5.928;2023-02-28T06:05:09;3.92;;;2.22;;
66946;SDS011;53853;51.982;5.928;2023-02-28T06:07:43;4.35;;;1.83;;
66946;SDS011;53853;51.982;5.928;2023-02-28T06:10:16;3.33;;;1.67;;
66946;SDS011;53853;51.982;5.928;2023-02-28T06:12:46;4.10;;;1.88;;
66946;SDS011;53853;51.982;5.928;2023-02-28T06:15:16;5.28;;;2.67;;
66946;SDS011;53853;51.982;5.928;2023-02-28T06:17:46;2.85;;;1.70;;
66946;SDS011;53853;51.982;5.928;2023-02-28T06:20:16;4.43;;;2.00;;
66946;SDS011;53853;51.982;5.928;2023-02-28T06:22:46;3.03;;;2.17;;
66946;SDS011;53853;51.982;5.928;2023-02-28T06:25:19;3.40;;;2.03;;
66946;SDS011;53853;51.982;5.928;2023-02-28T06:27:50;4.55;;;2.38;;
66946;SDS011;53853;51.982;5.928;2023-02-28T06:30:21;4.65;;;2.20;;
66946;SDS011;53853;51.982;5.928;2023-02-28T06:32:52;2.78;;;1.95;;
66946;SDS011;53853;51.982;5.928;2023-02-28T06:35:23;4.20;;;2.70;;
66946;SDS011;53853;51.982;5.928;2023-02-28T06:37:52;3.33;;;2.03;;
66946;SDS011;53853;51.982;5.928;2023-02-28T06:40:25;4.22;;;2.15;;
66946;SDS011;53853;51.982;5.928;2023-02-28T06:42:57;3.67;;;2.30;;
66946;SDS011;53853;51.982;5.928;2023-02-28T06:45:27;3.35;;;2.10;;
66946;SDS011;53853;51.982;5.928;2023-02-28T06:47:57;3.70;;;2.20;;
66946;SDS011;53853;51.982;5.928;2023-02-28T06:50:27;3.63;;;1.70;;
66946;SDS011;53853;51.982;5.928;2023-02-28T06:52:58;3.47;;;2.60;;
66946;SDS011;53853;51.982;5.928;2023-02-28T06:55:30;3.55;;;2.00;;
66946;SDS011;53853;51.982;5.928;2023-02-28T06:58:00;4.70;;;2.30;;
66946;SDS011;53853;51.982;5.928;2023-02-28T07:00:40;4.28;;;2.67;;
66946;SDS011;53853;51.982;5.928;2023-02-28T07:03:10;2.92;;;2.22;;
66946;SDS011;53853;51.982;5.928;2023-02-28T07:05:41;4.75;;;2.30;;
66946;SDS011;53853;51.982;5.928;2023-02-28T07:08:11;5.03;;;2.35;;
66946;SDS011;53853;51.982;5.928;2023-02-28T07:10:44;5.25;;;3.05;;
66946;SDS011;53853;51.982;5.928;2023-02-28T07:13:14;4.88;;;2.88;;
66946;SDS011;53853;51.982;5.928;2023-02-28T07:15:44;4.13;;;2.53;;
66946;SDS011;53853;51.982;5.928;2023-02-28T07:18:21;4.78;;;2.53;;
66946;SDS011;53853;51.982;5.928;2023-02-28T07:20:51;4.22;;;2.60;;
66946;SDS011;53853;51.982;5.928;2023-02-28T07:23:21;3.80;;;2.20;;
66946;SDS011;53853;51.982;5.928;2023-02-28T07:25:54;3.67;;;2.03;;
66946;SDS011;53853;51.982;5.928;2023-02-28T07:28:24;5.90;;;2.92;;
66946;SDS011;53853;51.982;5.928;2023-02-28T07:30:54;5.00;;;3.65;;
66946;SDS011;53853;51.982;5.928;2023-02-28T07:33:24;4.63;;;2.60;;
66946;SDS011;53853;51.982;5.928;2023-02-28T07:35:59;3.67;;;2.70;;
66946;SDS011;53853;51.982;5.928;2023-02-28T07:38:30;4.22;;;3.42;;
66946;SDS011;53853;51.982;5.928;2023-02-28T07:41:04;11.00;;;4.03;;
66946;SDS011;53853;51.982;5.928;2023-02-28T07:43:34;5.90;;;3.00;;
66946;SDS011;53853;51.982;5.928;2023-02-28T07:46:06;5.50;;;2.80;;
66946;SDS011;53853;51.982;5.928;2023-02-28T07:48:37;6.07;;;3.13;;
66946;SDS011;53853;51.982;5.928;2023-02-28T07:51:07;4.88;;;3.50;;
66946;SDS011;53853;51.982;5.928;2023-02-28T07:53:38;6.53;;;3.50;;
66946;SDS011;53853;51.982;5.928;2023-02-28T07:56:10;5.57;;;3.42;;
66946;SDS011;53853;51.982;5.928;2023-02-28T07:58:40;4.72;;;2.72;;
66946;SDS011;53853;51.982;5.928;2023-02-28T08:01:10;3.78;;;2.78;;
66946;SDS011;53853;51.982;5.928;2023-02-28T08:03:41;4.25;;;2.55;;
66946;SDS011;53853;51.982;5.928;2023-02-28T08:06:15;4.50;;;3.10;;
66946;SDS011;53853;51.982;5.928;2023-02-28T08:08:50;4.32;;;2.92;;
66946;SDS011;53853;51.982;5.928;2023-02-28T08:11:24;4.38;;;2.53;;
66946;SDS011;53853;51.982;5.928;2023-02-28T08:13:54;6.80;;;2.95;;
66946;SDS011;53853;51.982;5.928;2023-02-28T08:16:24;6.85;;;2.80;;
66946;SDS011;53853;51.982;5.928;2023-02-28T08:18:54;6.53;;;2.92;;
66946;SDS011;53853;51.982;5.928;2023-02-28T08:21:24;4.63;;;3.22;;
66946;SDS011;53853;51.982;5.928;2023-02-28T08:23:54;4.43;;;3.30;;
66946;SDS011;53853;51.982;5.928;2023-02-28T08:26:26;4.78;;;2.58;;
66946;SDS011;53853;51.982;5.928;2023-02-28T08:28:56;4.63;;;2.80;;
66946;SDS011;53853;51.982;5.928;2023-02-28T08:31:26;4.63;;;2.38;;
66946;SDS011;53853;51.982;5.928;2023-02-28T08:33:56;5.45;;;3.22;;
66946;SDS011;53853;51.982;5.928;2023-02-28T08:36:26;3.47;;;2.10;;
66946;SDS011;53853;51.982;5.928;2023-02-28T08:38:56;3.63;;;2.15;;
66946;SDS011;53853;51.982;5.928;2023-02-28T08:41:29;4.82;;;2.70;;
66946;SDS011;53853;51.982;5.928;2023-02-28T08:43:59;3.88;;;2.85;;
66946;SDS011;53853;51.982;5.928;2023-02-28T08:46:29;4.22;;;2.58;;
66946;SDS011;53853;51.982;5.928;2023-02-28T08:48:59;5.38;;;2.53;;
66946;SDS011;53853;51.982;5.928;2023-02-28T08:51:29;3.55;;;2.38;;
66946;SDS011;53853;51.982;5.928;2023-02-28T08:53:59;4.45;;;2.83;;
66946;SDS011;53853;51.982;5.928;2023-02-28T08:56:32;4.32;;;2.83;;
66946;SDS011;53853;51.982;5.928;2023-02-28T08:59:02;4.15;;;2.38;;
66946;SDS011;53853;51.982;5.928;2023-02-28T09:01:31;2.90;;;2.00;;
66946;SDS011;53853;51.982;5.928;2023-02-28T09:04:02;3.67;;;2.15;;
66946;SDS011;53853;51.982;5.928;2023-02-28T09:06:34;3.72;;;2.35;;
66946;SDS011;53853;51.982;5.928;2023-02-28T09:09:04;3.00;;;1.85;;
66946;SDS011;53853;51.982;5.928;2023-02-28T09:11:37;3.25;;;2.13;;
66946;SDS011;53853;51.982;5.928;2023-02-28T09:14:07;4.10;;;2.05;;
66946;SDS011;53853;51.982;5.928;2023-02-28T09:16:37;3.95;;;2.05;;
66946;SDS011;53853;51.982;5.928;2023-02-28T09:19:10;2.72;;;1.70;;
66946;SDS011;53853;51.982;5.928;2023-02-28T09:21:40;3.00;;;1.70;;
66946;SDS011;53853;51.982;5.928;2023-02-28T09:24:10;2.40;;;1.60;;
66946;SDS011;53853;51.982;5.928;2023-02-28T09:26:43;3.22;;;2.10;;
66946;SDS011;53853;51.982;5.928;2023-02-28T09:29:13;4.35;;;2.05;;
66946;SDS011;53853;51.982;5.928;2023-02-28T09:31:43;3.15;;;2.00;;
66946;SDS011;53853;51.982;5.928;2023-02-28T09:34:13;2.60;;;1.85;;
66946;SDS011;53853;51.982;5.928;2023-02-28T09:36:43;3.55;;;2.33;;
66946;SDS011;53853;51.982;5.928;2023-02-28T09:39:13;2.60;;;2.03;;
66946;SDS011;53853;51.982;5.928;2023-02-28T09:41:47;4.38;;;2.10;;
66946;SDS011;53853;51.982;5.928;2023-02-28T09:44:20;3.40;;;2.17;;
66946;SDS011;53853;51.982;5.928;2023-02-28T09:46:56;2.75;;;1.98;;
66946;SDS011;53853;51.982;5.928;2023-02-28T09:49:32;6.07;;;2.17;;
66946;SDS011;53853;51.982;5.928;2023-02-28T09:52:08;2.80;;;1.98;;
66946;SDS011;53853;51.982;5.928;2023-02-28T09:54:42;3.55;;;1.90;;
66946;SDS011;53853;51.982;5.928;2023-02-28T09:57:17;3.28;;;2.10;;
66946;SDS011;53853;51.982;5.928;2023-02-28T09:59:55;5.32;;;2.22;;
66946;SDS011;53853;51.982;5.928;2023-02-28T10:02:41;3.28;;;1.90;;
66946;SDS011;53853;51.982;5.928;2023-02-28T10:05:19;3.30;;;2.20;;
66946;SDS011;53853;51.982;5.928;2023-02-28T10:07:58;2.60;;;1.70;;
66946;SDS011;53853;51.982;5.928;2023-02-28T10:10:35;3.88;;;2.20;;
66946;SDS011;53853;51.982;5.928;2023-02-28T10:13:16;2.90;;;2.00;;
66946;SDS011;53853;51.982;5.928;2023-02-28T10:15:53;2.92;;;1.50;;
66946;SDS011;53853;51.982;5.928;2023-02-28T10:20:59;2.85;;;2.00;;
66946;SDS011;53853;51.982;5.928;2023-02-28T10:23:31;3.10;;;2.45;;
66946;SDS011;53853;51.982;5.928;2023-02-28T10:26:09;2.20;;;1.70;;
66946;SDS011;53853;51.982;5.928;2023-02-28T10:28:44;3.63;;;2.60;;
66946;SDS011;53853;51.982;5.928;2023-02-28T10:31:15;4.77;;;1.80;;
66946;SDS011;53853;51.982;5.928;2023-02-28T10:33:48;2.58;;;1.77;;
66946;SDS011;53853;51.982;5.928;2023-02-28T10:36:19;4.57;;;1.90;;
66946;SDS011;53853;51.982;5.928;2023-02-28T10:38:49;3.22;;;2.15;;
66946;SDS011;53853;51.982;5.928;2023-02-28T10:41:27;5.88;;;1.92;;
66946;SDS011;53853;51.982;5.928;2023-02-28T10:44:17;3.00;;;2.08;;
66946;SDS011;53853;51.982;5.928;2023-02-28T10:46:50;2.97;;;1.65;;
66946;SDS011;53853;51.982;5.928;2023-02-28T10:49:22;3.72;;;2.17;;
66946;SDS011;53853;51.982;5.928;2023-02-28T10:51:55;3.80;;;2.22;;
66946;SDS011;53853;51.982;5.928;2023-02-28T10:54:29;3.38;;;1.98;;
66946;SDS011;53853;51.982;5.928;2023-02-28T10:57:08;3.35;;;2.30;;
66946;SDS011;53853;51.982;5.928;2023-02-28T10:59:47;4.03;;;1.40;;
66946;SDS011;53853;51.982;5.928;2023-02-28T11:05:22;2.65;;;1.83;;
66946;SDS011;53853;51.982;5.928;2023-02-28T11:08:05;3.38;;;2.05;;
66946;SDS011;53853;51.982;5.928;2023-02-28T11:10:43;3.28;;;2.03;;
66946;SDS011;53853;51.982;5.928;2023-02-28T11:13:19;2.90;;;1.98;;
66946;SDS011;53853;51.982;5.928;2023-02-28T11:15:57;2.55;;;2.10;;
66946;SDS011;53853;51.982;5.928;2023-02-28T11:18:29;4.70;;;1.83;;
66946;SDS011;53853;51.982;5.928;2023-02-28T11:21:04;2.53;;;1.80;;
66946;SDS011;53853;51.982;5.928;2023-02-28T11:23:35;3.38;;;1.95;;
66946;SDS011;53853;51.982;5.928;2023-02-28T11:26:09;2.55;;;1.77;;
66946;SDS011;53853;51.982;5.928;2023-02-28T11:28:40;5.47;;;2.47;;
66946;SDS011;53853;51.982;5.928;2023-02-28T11:31:19;2.30;;;1.50;;
66946;SDS011;53853;51.982;5.928;2023-02-28T11:33:49;2.97;;;1.73;;
66946;SDS011;53853;51.982;5.928;2023-02-28T11:36:22;2.70;;;1.90;;
66946;SDS011;53853;51.982;5.928;2023-02-28T11:38:55;3.47;;;2.05;;
66946;SDS011;53853;51.982;5.928;2023-02-28T11:41:33;2.58;;;1.90;;
66946;SDS011;53853;51.982;5.928;2023-02-28T11:44:28;4.03;;;2.00;;
66946;SDS011;53853;51.982;5.928;2023-02-28T11:47:14;2.42;;;1.63;;
66946;SDS011;53853;51.982;5.928;2023-02-28T11:49:56;2.03;;;1.50;;
66946;SDS011;53853;51.982;5.928;2023-02-28T11:52:43;2.65;;;1.63;;
66946;SDS011;53853;51.982;5.928;2023-02-28T11:55:21;3.08;;;1.88;;
66946;SDS011;53853;51.982;5.928;2023-02-28T12:01:01;4.03;;;1.88;;
66946;SDS011;53853;51.982;5.928;2023-02-28T12:03:42;3.78;;;1.92;;
66946;SDS011;53853;51.982;5.928;2023-02-28T12:06:20;3.60;;;1.90;;
66946;SDS011;53853;51.982;5.928;2023-02-28T12:08:58;3.47;;;1.92;;
66946;SDS011;53853;51.982;5.928;2023-02-28T12:11:40;3.00;;;1.92;;
66946;SDS011;53853;51.982;5.928;2023-02-28T12:14:24;3.08;;;1.85;;
66946;SDS011;53853;51.982;5.928;2023-02-28T12:17:13;3.70;;;2.20;;
66946;SDS011;53853;51.982;5.928;2023-02-28T12:22:32;4.07;;;2.55;;
66946;SDS011;53853;51.982;5.928;2023-02-28T12:28:17;3.57;;;2.10;;
66946;SDS011;53853;51.982;5.928;2023-02-28T12:30:54;3.53;;;2.45;;
66946;SDS011;53853;51.982;5.928;2023-02-28T12:33:31;4.05;;;2.45;;
66946;SDS011;53853;51.982;5.928;2023-02-28T12:36:09;3.10;;;2.03;;
66946;SDS011;53853;51.982;5.928;2023-02-28T12:38:45;5.00;;;2.78;;
66946;SDS011;53853;51.982;5.928;2023-02-28T12:41:22;3.55;;;2.38;;
66946;SDS011;53853;51.982;5.928;2023-02-28T12:44:00;3.42;;;2.50;;
66946;SDS011;53853;51.982;5.928;2023-02-28T12:46:35;4.05;;;2.65;;
66946;SDS011;53853;51.982;5.928;2023-02-28T12:49:10;3.20;;;2.47;;
66946;SDS011;53853;51.982;5.928;2023-02-28T12:51:47;3.45;;;2.10;;
66946;SDS011;53853;51.982;5.928;2023-02-28T12:54:19;3.90;;;2.20;;
66946;SDS011;53853;51.982;5.928;2023-02-28T12:56:56;4.55;;;2.20;;
66946;SDS011;53853;51.982;5.928;2023-02-28T12:59:34;3.67;;;2.30;;
66946;SDS011;53853;51.982;5.928;2023-02-28T13:08:24;4.20;;;2.57;;
66946;SDS011;53853;51.982;5.928;2023-02-28T13:11:23;4.03;;;2.67;;
66946;SDS011;53853;51.982;5.928;2023-02-28T13:13:57;4.47;;;2.22;;
66946;SDS011;53853;51.982;5.928;2023-02-28T13:16:28;4.72;;;2.00;;
66946;SDS011;53853;51.982;5.928;2023-02-28T13:19:19;2.90;;;2.05;;
66946;SDS011;53853;51.982;5.928;2023-02-28T13:21:51;3.03;;;1.60;;
66946;SDS011;53853;51.982;5.928;2023-02-28T13:27:21;3.97;;;2.40;;
66946;SDS011;53853;51.982;5.928;2023-02-28T13:29:53;5.03;;;2.20;;
66946;SDS011;53853;51.982;5.928;2023-02-28T13:32:30;3.05;;;2.20;;
66946;SDS011;53853;51.982;5.928;2023-02-28T13:35:13;5.13;;;2.33;;
66946;SDS011;53853;51.982;5.928;2023-02-28T13:44:14;6.72;;;2.80;;
66946;SDS011;53853;51.982;5.928;2023-02-28T13:49:45;3.13;;;2.25;;
66946;SDS011;53853;51.982;5.928;2023-02-28T13:52:17;3.47;;;2.47;;
66946;SDS011;53853;51.982;5.928;2023-02-28T13:54:52;3.55;;;1.77;;
66946;SDS011;53853;51.982;5.928;2023-02-28T13:57:30;4.05;;;2.13;;
66946;SDS011;53853;51.982;5.928;2023-02-28T14:00:18;2.70;;;2.10;;
66946;SDS011;53853;51.982;5.928;2023-02-28T14:06:08;4.83;;;2.43;;
66946;SDS011;53853;51.982;5.928;2023-02-28T14:08:49;3.13;;;1.98;;
66946;SDS011;53853;51.982;5.928;2023-02-28T14:11:29;4.20;;;2.83;;
66946;SDS011;53853;51.982;5.928;2023-02-28T14:14:00;3.28;;;2.40;;
66946;SDS011;53853;51.982;5.928;2023-02-28T14:16:38;2.67;;;2.00;;
66946;SDS011;53853;51.982;5.928;2023-02-28T14:19:12;3.40;;;2.20;;
66946;SDS011;53853;51.982;5.928;2023-02-28T14:21:47;3.00;;;2.00;;
66946;SDS011;53853;51.982;5.928;2023-02-28T14:27:32;3.67;;;2.33;;
66946;SDS011;53853;51.982;5.928;2023-02-28T14:33:18;8.77;;;4.72;;
66946;SDS011;53853;51.982;5.928;2023-02-28T14:36:00;4.82;;;2.63;;
66946;SDS011;53853;51.982;5.928;2023-02-28T14:38:45;3.10;;;2.50;;
66946;SDS011;53853;51.982;5.928;2023-02-28T14:41:23;3.83;;;2.13;;
66946;SDS011;53853;51.982;5.928;2023-02-28T14:44:01;2.80;;;1.90;;
66946;SDS011;53853;51.982;5.928;2023-02-28T14:46:42;3.80;;;1.83;;
66946;SDS011;53853;51.982;5.928;2023-02-28T14:49:18;2.83;;;1.83;;
66946;SDS011;53853;51.982;5.928;2023-02-28T14:51:49;4.50;;;3.00;;
66946;SDS011;53853;51.982;5.928;2023-02-28T14:54:30;4.55;;;3.10;;
66946;SDS011;53853;51.982;5.928;2023-02-28T14:57:00;5.82;;;2.92;;
66946;SDS011;53853;51.982;5.928;2023-02-28T14:59:30;3.85;;;2.85;;
66946;SDS011;53853;51.982;5.928;2023-02-28T15:04:57;3.63;;;2.60;;
66946;SDS011;53853;51.982;5.928;2023-02-28T15:07:28;3.55;;;2.30;;
66946;SDS011;53853;51.982;5.928;2023-02-28T15:10:08;4.20;;;2.58;;
66946;SDS011;53853;51.982;5.928;2023-02-28T15:12:40;3.70;;;2.38;;
66946;SDS011;53853;51.982;5.928;2023-02-28T15:15:14;3.28;;;2.20;;
66946;SDS011;53853;51.982;5.928;2023-02-28T15:17:47;5.40;;;2.50;;
66946;SDS011;53853;51.982;5.928;2023-02-28T15:20:24;3.80;;;2.05;;
66946;SDS011;53853;51.982;5.928;2023-02-28T15:25:25;3.40;;;2.70;;
66946;SDS011;53853;51.982;5.928;2023-02-28T15:27:57;3.90;;;2.30;;
66946;SDS011;53853;51.982;5.928;2023-02-28T15:30:27;2.05;;;1.58;;
66946;SDS011;53853;51.982;5.928;2023-02-28T15:33:04;2.78;;;2.00;;
66946;SDS011;53853;51.982;5.928;2023-02-28T15:35:48;4.05;;;2.33;;
66946;SDS011;53853;51.982;5.928;2023-02-28T15:38:22;5.10;;;2.65;;
66946;SDS011;53853;51.982;5.928;2023-02-28T15:40:54;2.47;;;2.03;;
66946;SDS011;53853;51.982;5.928;2023-02-28T15:43:26;3.20;;;2.03;;
66946;SDS011;53853;51.982;5.928;2023-02-28T15:45:58;3.17;;;2.30;;
66946;SDS011;53853;51.982;5.928;2023-02-28T15:48:30;2.60;;;2.10;;
66946;SDS011;53853;51.982;5.928;2023-02-28T15:51:06;2.75;;;1.90;;
66946;SDS011;53853;51.982;5.928;2023-02-28T15:53:44;3.05;;;2.15;;
66946;SDS011;53853;51.982;5.928;2023-02-28T15:56:22;3.08;;;2.13;;
66946;SDS011;53853;51.982;5.928;2023-02-28T15:58:54;3.13;;;1.90;;
66946;SDS011;53853;51.982;5.928;2023-02-28T16:01:25;4.68;;;2.00;;
66946;SDS011;53853;51.982;5.928;2023-02-28T16:03:59;2.47;;;1.88;;
66946;SDS011;53853;51.982;5.928;2023-02-28T16:06:41;2.67;;;1.98;;
66946;SDS011;53853;51.982;5.928;2023-02-28T16:09:12;3.67;;;1.90;;
66946;SDS011;53853;51.982;5.928;2023-02-28T16:11:44;3.65;;;2.28;;
66946;SDS011;53853;51.982;5.928;2023-02-28T16:14:17;3.35;;;2.20;;
66946;SDS011;53853;51.982;5.928;2023-02-28T16:16:50;3.78;;;2.67;;
66946;SDS011;53853;51.982;5.928;2023-02-28T16:19:21;3.38;;;2.05;;
66946;SDS011;53853;51.982;5.928;2023-02-28T16:21:54;3.25;;;1.98;;
66946;SDS011;53853;51.982;5.928;2023-02-28T16:24:24;5.90;;;2.17;;
66946;SDS011;53853;51.982;5.928;2023-02-28T16:26:54;3.72;;;1.90;;
66946;SDS011;53853;51.982;5.928;2023-02-28T16:29:26;2.97;;;2.10;;
66946;SDS011;53853;51.982;5.928;2023-02-28T16:31:59;3.58;;;2.47;;
66946;SDS011;53853;51.982;5.928;2023-02-28T16:34:32;3.17;;;1.90;;
66946;SDS011;53853;51.982;5.928;2023-02-28T16:37:05;3.22;;;2.00;;